Time;durP1;ratioP1;P1;durP2;ratioP2;P2;SDS_P1;SDS_P2;PMS_P1;PMS_P2;Temp;Humidity;BMP_temperature;BMP_pressure;BME280_temperature;BME280_humidity;BME280_pressure;Samples;Min_cycle;Max_cycle;Signal;HPM_P1;HPM_P2
2023/12/22 00:01:01;;;;;;;12.38;3.30;;;;;;;6.33;100.00;100164.03;5113239;28;20048;-65
2023/12/22 00:03:49;;;;;;;11.90;3.72;;;;;;;6.35;100.00;100172.69;5113912;28;20059;-65
2023/12/22 00:06:37;;;;;;;15.00;4.18;;;;;;;6.33;100.00;100177.56;5097670;28;20040;-67
2023/12/22 00:09:25;;;;;;;15.35;3.53;;;;;;;6.36;100.00;100179.72;5102602;28;20511;-66
2023/12/22 00:12:13;;;;;;;11.68;3.10;;;;;;;6.36;100.00;100182.44;5095981;28;20133;-67
2023/12/22 00:15:01;;;;;;;8.73;2.70;;;;;;;6.36;100.00;100168.91;5092059;28;20129;-66
2023/12/22 00:17:50;;;;;;;12.73;3.10;;;;;;;6.33;100.00;100171.31;5076460;28;20071;-67
2023/12/22 00:20:38;;;;;;;12.57;3.35;;;;;;;6.35;100.00;100172.69;5093134;28;20047;-65
2023/12/22 00:23:26;;;;;;;10.70;3.10;;;;;;;6.36;100.00;100168.91;5092670;28;20495;-66
2023/12/22 00:26:15;;;;;;;12.18;2.92;;;;;;;6.35;100.00;100185.38;5063354;28;20472;-67
2023/12/22 00:29:03;;;;;;;13.85;3.47;;;;;;;6.37;100.00;100183.25;5057490;28;20166;-66
2023/12/22 00:31:51;;;;;;;13.98;3.10;;;;;;;6.39;100.00;100195.44;5059127;28;20045;-67
2023/12/22 00:34:39;;;;;;;12.00;3.17;;;;;;;6.40;100.00;100196.28;5084637;28;20043;-66
2023/12/22 00:37:27;;;;;;;9.25;3.08;;;;;;;6.43;100.00;100205.78;5063777;28;20044;-66
2023/12/22 00:40:15;;;;;;;12.35;3.17;;;;;;;6.43;100.00;100203.06;5093529;28;20048;-67
2023/12/22 00:43:03;;;;;;;10.93;2.83;;;;;;;6.47;100.00;100196.06;5092972;28;20040;-66
2023/12/22 00:45:51;;;;;;;9.90;2.92;;;;;;;6.42;100.00;100215.78;5077449;28;20044;-67
2023/12/22 00:48:40;;;;;;;13.52;3.50;;;;;;;6.42;100.00;100217.66;5084582;28;20058;-66
2023/12/22 00:51:29;;;;;;;15.27;3.75;;;;;;;6.37;100.00;100213.84;5112627;28;20047;-66
2023/12/22 00:54:17;;;;;;;13.32;3.85;;;;;;;6.34;100.00;100190.00;5097443;28;20050;-67
2023/12/22 00:57:05;;;;;;;15.20;3.50;;;;;;;6.32;100.00;100177.78;5111658;28;20124;-66
2023/12/22 00:59:53;;;;;;;15.02;3.70;;;;;;;6.35;100.00;100188.09;5095892;28;20046;-68
2023/12/22 01:02:41;;;;;;;16.58;3.85;;;;;;;6.39;100.00;100183.81;5112018;28;20063;-67
2023/12/22 01:05:29;;;;;;;15.65;3.88;;;;;;;6.40;100.00;100202.50;5098638;28;20044;-67
2023/12/22 01:08:17;;;;;;;12.63;3.80;;;;;;;6.39;100.00;100195.44;5097100;28;20055;-65
2023/12/22 01:11:05;;;;;;;16.08;4.03;;;;;;;6.41;100.00;100189.78;5092409;28;20133;-66
2023/12/22 01:13:53;;;;;;;17.55;4.63;;;;;;;6.42;100.00;100187.91;5108099;28;20132;-67
2023/12/22 01:16:41;;;;;;;18.48;4.13;;;;;;;6.40;100.00;100170.03;5096586;28;20052;-66
2023/12/22 01:19:29;;;;;;;18.90;4.38;;;;;;;6.40;100.00;100190.88;5111995;28;20466;-65
2023/12/22 01:22:17;;;;;;;13.95;4.05;;;;;;;6.42;100.00;100190.59;5059479;28;20519;-66
2023/12/22 01:25:06;;;;;;;17.27;4.50;;;;;;;6.41;100.00;100203.31;5093466;28;20051;-66
2023/12/22 01:27:54;;;;;;;19.02;4.22;;;;;;;6.39;100.00;100217.09;5115419;28;20051;-66
2023/12/22 01:30:42;;;;;;;16.73;3.92;;;;;;;6.40;100.00;100213.34;5115921;28;20052;-65
2023/12/22 01:33:30;;;;;;;14.80;4.25;;;;;;;6.39;100.00;100222.50;5101822;28;20495;-65
2023/12/22 01:36:18;;;;;;;12.93;3.80;;;;;;;6.40;100.00;100212.53;5100274;28;20132;-66
2023/12/22 01:39:06;;;;;;;16.77;4.22;;;;;;;6.43;100.00;100203.06;5097445;28;20047;-65
2023/12/22 01:41:56;;;;;;;18.55;4.60;;;;;;;6.50;100.00;100222.63;5080138;28;20063;-65
2023/12/22 01:44:44;;;;;;;19.65;4.55;;;;;;;6.57;100.00;100223.25;5095722;28;20441;-66
2023/12/22 01:47:33;;;;;;;18.23;4.55;;;;;;;6.61;100.00;100213.50;5066602;28;20047;-67
2023/12/22 01:50:22;;;;;;;18.23;4.50;;;;;;;6.63;100.00;100215.97;5103489;28;20054;-64
2023/12/22 01:53:10;;;;;;;18.67;4.45;;;;;;;6.66;100.00;100210.84;5100716;28;20136;-66
2023/12/22 01:55:59;;;;;;;22.27;4.93;;;;;;;6.66;100.00;100221.69;5100278;28;20407;-65
2023/12/22 01:58:47;;;;;;;19.20;4.65;;;;;;;6.68;100.00;100226.84;5072067;28;20055;-66
2023/12/22 02:01:40;;;;;;;20.40;4.40;;;;;;;6.70;100.00;100230.13;5113703;28;20173;-67
2023/12/22 02:04:28;;;;;;;19.42;4.80;;;;;;;6.71;100.00;100235.28;5062852;28;20044;-65
2023/12/22 02:07:16;;;;;;;20.10;4.13;;;;;;;6.70;100.00;100224.72;5058841;28;20106;-67
2023/12/22 02:10:04;;;;;;;18.02;4.80;;;;;;;6.72;100.00;100227.97;5033220;28;20044;-68
2023/12/22 02:12:53;;;;;;;19.88;4.60;;;;;;;6.72;100.00;100230.69;5075024;28;20044;-67
2023/12/22 02:15:41;;;;;;;14.70;4.00;;;;;;;6.74;100.00;100226.66;5059729;28;20053;-67
2023/12/22 02:18:34;;;;;;;15.88;4.15;;;;;;;6.74;100.00;100242.88;5075166;28;20128;-66
2023/12/22 02:21:22;;;;;;;18.08;4.55;;;;;;;6.72;100.00;100238.81;5084853;28;20044;-66
2023/12/22 02:24:10;;;;;;;14.38;4.13;;;;;;;6.71;100.00;100245.28;5094993;28;20043;-67
2023/12/22 02:27:28;;;;;;;15.95;4.45;;;;;;;6.75;100.00;100238.28;5080075;28;20086;-68
2023/12/22 02:30:34;;;;;;;14.75;3.83;;;;;;;6.74;100.00;100240.19;5078286;28;20492;-68
2023/12/22 02:33:23;;;;;;;19.65;4.95;;;;;;;6.76;100.00;100239.94;5051725;28;20120;-67
2023/12/22 02:36:12;;;;;;;17.88;3.97;;;;;;;6.76;100.00;100232.63;5098736;28;20040;-68
2023/12/22 02:39:01;;;;;;;19.90;4.85;;;;;;;6.79;100.00;100223.97;5113121;28;20488;-67
2023/12/22 02:41:49;;;;;;;20.48;4.78;;;;;;;6.79;100.00;100209.63;5100529;28;20080;-67
2023/12/22 02:44:38;;;;;;;17.52;4.38;;;;;;;6.75;100.00;100198.47;5072782;28;20051;-67
2023/12/22 02:47:32;;;;;;;16.58;4.57;;;;;;;6.77;100.00;100206.34;5063996;28;20049;-66
2023/12/22 02:50:20;;;;;;;17.88;4.47;;;;;;;6.82;100.00;100206.41;5080551;28;20466;-66
2023/12/22 02:53:08;;;;;;;16.90;4.25;;;;;;;6.79;100.00;100202.31;5093679;28;20528;-67
2023/12/22 02:55:56;;;;;;;17.70;4.38;;;;;;;6.82;100.00;100201.78;5078178;28;20492;-66
2023/12/22 02:58:44;;;;;;;16.42;4.25;;;;;;;6.83;100.00;100211.56;5095006;28;20040;-65
2023/12/22 03:01:32;;;;;;;14.07;4.25;;;;;;;6.87;100.00;100197.50;5093951;28;20077;-65
2023/12/22 03:04:20;;;;;;;15.98;3.88;;;;;;;6.87;100.00;100216.47;5079151;28;20504;-67
2023/12/22 03:07:08;;;;;;;18.00;4.60;;;;;;;6.88;100.00;100191.84;5079549;28;20058;-66
2023/12/22 03:09:56;;;;;;;15.13;4.32;;;;;;;6.89;100.00;100184.53;5064648;28;20132;-66
2023/12/22 03:12:44;;;;;;;16.20;4.13;;;;;;;6.89;100.00;100187.22;5087444;28;20062;-66
2023/12/22 03:15:32;;;;;;;13.05;3.90;;;;;;;6.88;100.00;100191.00;5113974;28;20500;-65
2023/12/22 03:18:20;;;;;;;13.65;3.88;;;;;;;6.88;100.00;100197.25;5098411;28;20530;-65
2023/12/22 03:21:08;;;;;;;18.75;4.45;;;;;;;6.88;100.00;100197.25;5114578;28;20051;-65
2023/12/22 03:23:56;;;;;;;20.23;4.43;;;;;;;6.88;100.00;100218.91;5108972;28;20060;-64
2023/12/22 03:26:44;;;;;;;21.88;4.82;;;;;;;6.91;100.00;100223.00;5128653;28;20099;-64
2023/12/22 03:29:32;;;;;;;19.27;4.80;;;;;;;6.93;100.00;100218.16;5108048;28;20052;-64
2023/12/22 03:32:20;;;;;;;21.27;4.97;;;;;;;6.96;100.00;100220.31;5097485;28;20056;-64
2023/12/22 03:35:08;;;;;;;20.73;5.15;;;;;;;6.95;100.00;100215.97;5093538;28;20457;-64
2023/12/22 03:37:56;;;;;;;16.38;4.50;;;;;;;6.93;100.00;100220.84;5107540;28;20047;-64
2023/12/22 03:40:44;;;;;;;16.60;4.30;;;;;;;6.93;100.00;100220.84;5065653;28;20044;-65
2023/12/22 03:43:33;;;;;;;13.55;3.50;;;;;;;6.96;100.00;100212.19;5093874;28;20040;-66
2023/12/22 03:46:22;;;;;;;18.77;4.57;;;;;;;6.95;100.00;100224.09;5093812;28;20051;-67
2023/12/22 03:49:10;;;;;;;18.05;5.10;;;;;;;6.97;100.00;100211.13;5084074;28;20044;-68
2023/12/22 03:51:58;;;;;;;20.17;4.30;;;;;;;6.96;100.00;100225.75;5059740;28;20087;-65
2023/12/22 03:54:46;;;;;;;16.17;4.10;;;;;;;6.97;100.00;100219.25;5074177;28;20369;-66
2023/12/22 03:57:34;;;;;;;20.85;4.28;;;;;;;6.99;100.00;100226.03;5073015;28;20562;-66
2023/12/22 04:00:22;;;;;;;15.10;4.07;;;;;;;7.04;100.00;100227.97;5089898;28;20518;-67
2023/12/22 04:03:09;;;;;;;15.93;4.07;;;;;;;7.09;100.00;100219.88;5051447;28;20408;-65
2023/12/22 04:05:58;;;;;;;16.17;4.60;;;;;;;7.12;100.00;100230.22;5057711;28;20044;-66
2023/12/22 04:08:46;;;;;;;18.88;4.15;;;;;;;7.18;100.00;100231.88;5072023;28;20044;-66
2023/12/22 04:11:36;;;;;;;15.88;4.10;;;;;;;7.19;100.00;100236.22;5072599;28;20131;-66
2023/12/22 04:14:27;;;;;;;20.08;4.68;;;;;;;7.19;100.00;100235.38;5074469;28;20056;-66
2023/12/22 04:17:15;;;;;;;17.60;3.88;;;;;;;7.22;100.00;100241.13;5078446;28;20043;-64
2023/12/22 04:20:03;;;;;;;16.95;4.22;;;;;;;7.23;100.00;100236.50;5063275;28;20044;-66
2023/12/22 04:22:51;;;;;;;19.13;4.00;;;;;;;7.24;100.00;100233.53;5092365;28;20056;-67
2023/12/22 04:25:39;;;;;;;22.67;4.82;;;;;;;7.27;100.00;100253.88;5091737;28;20127;-66
2023/12/22 04:28:28;;;;;;;12.77;4.20;;;;;;;7.27;100.00;100253.88;5091568;28;20036;-66
2023/12/22 04:31:15;;;;;;;15.95;4.30;;;;;;;7.28;100.00;100262.81;5091903;28;20044;-66
2023/12/22 04:34:03;;;;;;;15.90;4.20;;;;;;;7.33;100.00;100258.25;5091484;28;20082;-66
2023/12/22 04:36:51;;;;;;;15.40;4.38;;;;;;;7.32;100.00;100269.38;5063115;28;20137;-65
2023/12/22 04:39:40;;;;;;;17.95;4.32;;;;;;;7.32;100.00;100304.59;5090005;28;20032;-66
2023/12/22 04:42:28;;;;;;;15.07;4.22;;;;;;;7.33;100.00;100281.81;5072213;28;20488;-66
2023/12/22 04:45:17;;;;;;;15.70;4.85;;;;;;;7.31;100.00;100259.59;5071719;28;20047;-66
2023/12/22 04:48:05;;;;;;;19.40;4.32;;;;;;;7.31;100.00;100270.44;5071672;28;20453;-66
2023/12/22 04:50:53;;;;;;;19.02;4.65;;;;;;;7.30;100.00;100263.38;5056442;28;20044;-66
2023/12/22 04:53:41;;;;;;;15.75;4.22;;;;;;;7.28;100.00;100263.63;5070587;28;20059;-65
2023/12/22 04:56:30;;;;;;;17.48;4.13;;;;;;;7.28;100.00;100255.50;5078217;28;20059;-65
2023/12/22 04:59:17;;;;;;;16.35;4.75;;;;;;;7.30;100.00;100280.44;5111694;28;20040;-65
2023/12/22 05:02:05;;;;;;;17.10;4.45;;;;;;;7.26;100.00;100284.75;5110058;28;20046;-66
2023/12/22 05:04:53;;;;;;;20.02;4.47;;;;;;;7.22;100.00;100276.34;5103868;28;20071;-66
2023/12/22 05:07:42;;;;;;;20.23;5.03;;;;;;;7.23;100.00;100285.28;5091368;28;20054;-67
2023/12/22 05:10:30;;;;;;;15.07;4.03;;;;;;;7.21;100.00;100274.69;5091503;28;20048;-66
2023/12/22 05:13:18;;;;;;;17.50;4.30;;;;;;;7.25;100.00;100278.53;5077071;28;20044;-67
2023/12/22 05:16:06;;;;;;;24.95;4.70;;;;;;;7.25;100.00;100283.94;5071567;28;20059;-67
2023/12/22 05:18:54;;;;;;;21.55;5.13;;;;;;;7.29;100.00;100283.41;5072323;28;20393;-67
2023/12/22 05:21:42;;;;;;;19.50;4.57;;;;;;;7.31;100.00;100294.81;5072204;28;20087;-67
2023/12/22 05:24:30;;;;;;;17.73;4.57;;;;;;;7.31;100.00;100292.94;5072362;28;20105;-66
2023/12/22 05:27:19;;;;;;;20.02;4.93;;;;;;;7.31;100.00;100292.09;5076193;28;20059;-65
2023/12/22 05:30:07;;;;;;;13.68;3.97;;;;;;;7.30;100.00;100282.34;5085137;28;20049;-66
2023/12/22 05:32:56;;;;;;;20.00;4.80;;;;;;;7.30;100.00;100280.44;5043738;28;20056;-66
2023/12/22 05:35:44;;;;;;;16.63;4.00;;;;;;;7.32;100.00;100266.66;5086016;28;20176;-67
2023/12/22 05:38:32;;;;;;;24.17;4.57;;;;;;;7.33;100.00;100266.38;5097136;28;20086;-67
2023/12/22 05:41:20;;;;;;;16.23;4.20;;;;;;;7.33;100.00;100260.16;5097876;28;20043;-65
2023/12/22 05:44:08;;;;;;;19.05;4.03;;;;;;;7.33;100.00;100269.09;5098703;28;20041;-66
2023/12/22 05:46:57;;;;;;;13.98;4.03;;;;;;;7.35;100.00;100263.41;5096132;28;20051;-65
2023/12/22 05:49:45;;;;;;;17.63;4.13;;;;;;;7.39;100.00;100272.66;5092040;28;20190;-65
2023/12/22 05:52:33;;;;;;;21.65;4.32;;;;;;;7.37;100.00;100259.38;5091965;28;20496;-65
2023/12/22 05:55:21;;;;;;;17.17;4.28;;;;;;;7.32;100.00;100263.94;5058230;28;20052;-64
2023/12/22 05:58:09;;;;;;;18.08;4.03;;;;;;;7.25;100.00;100273.09;5072516;28;20193;-66
2023/12/22 06:00:57;;;;;;;16.40;4.22;;;;;;;7.20;100.00;100267.66;5071627;28;20132;-65
2023/12/22 06:03:46;;;;;;;16.50;3.83;;;;;;;7.17;100.00;100257.34;5057015;28;20044;-67
2023/12/22 06:06:36;;;;;;;19.38;4.32;;;;;;;7.16;100.00;100260.28;5075809;28;20449;-66
2023/12/22 06:09:24;;;;;;;17.20;4.00;;;;;;;7.13;100.00;100258.91;5045976;28;20451;-67
2023/12/22 06:12:12;;;;;;;19.17;4.20;;;;;;;7.12;100.00;100251.03;5066548;28;20106;-66
2023/12/22 06:15:01;;;;;;;18.55;4.60;;;;;;;7.11;100.00;100252.94;5061461;28;20045;-66
2023/12/22 06:17:49;;;;;;;15.77;4.63;;;;;;;7.13;100.00;100245.38;5058122;28;20045;-65
2023/12/22 06:20:52;;;;;;;24.13;4.95;;;;;;;7.14;100.00;100254.31;5075639;28;20041;-66
2023/12/22 06:23:40;;;;;;;25.45;5.80;;;;;;;7.16;100.00;100234.00;5061402;28;20051;-68
2023/12/22 06:26:28;;;;;;;22.48;5.47;;;;;;;7.20;100.00;100243.25;5047188;28;20094;-66
2023/12/22 06:29:16;;;;;;;26.90;6.88;;;;;;;7.29;100.00;100253.59;5100383;28;20044;-67
2023/12/22 06:32:06;;;;;;;24.77;6.13;;;;;;;7.28;100.00;100249.28;5114303;28;20048;-67
2023/12/22 06:34:54;;;;;;;23.40;5.60;;;;;;;7.22;100.00;100254.66;5099159;28;20042;-66
2023/12/22 06:37:43;;;;;;;22.67;5.85;;;;;;;7.21;100.00;100265.75;5071748;28;20495;-67
2023/12/22 06:40:31;;;;;;;22.15;5.88;;;;;;;7.20;100.00;100277.69;5082558;28;20044;-67
2023/12/22 06:43:19;;;;;;;24.10;6.15;;;;;;;7.20;100.00;100291.22;5094665;28;20044;-67
2023/12/22 06:46:16;;;;;;;25.70;5.93;;;;;;;7.20;100.00;100286.63;5080383;28;20141;-67
2023/12/22 06:49:05;;;;;;;26.40;5.95;;;;;;;7.22;100.00;100276.34;5065497;28;20040;-67
2023/12/22 06:51:54;;;;;;;25.67;6.32;;;;;;;7.23;100.00;100260.91;5093981;28;20346;-67
2023/12/22 06:54:43;;;;;;;23.75;6.53;;;;;;;7.25;100.00;100261.44;5093255;28;20130;-68
2023/12/22 06:57:31;;;;;;;30.50;7.10;;;;;;;7.30;100.00;100247.13;5089394;28;20238;-66
2023/12/22 07:00:22;;;;;;;31.60;7.10;;;;;;;7.27;100.00;100258.50;5092311;28;20036;-67
2023/12/22 07:03:10;;;;;;;40.75;9.15;;;;;;;7.26;100.00;100244.09;5078711;28;20070;-67
2023/12/22 07:05:58;;;;;;;34.55;8.10;;;;;;;7.28;100.00;100252.00;5092723;28;20158;-66
2023/12/22 07:09:06;;;;;;;31.02;7.88;;;;;;;7.28;100.00;100252.78;5094544;28;20052;-66
2023/12/22 07:11:55;;;;;;;34.83;9.05;;;;;;;7.31;100.00;100248.75;5094862;28;20047;-66
2023/12/22 07:14:44;;;;;;;39.40;8.55;;;;;;;7.33;100.00;100242.00;5068431;28;20047;-67
2023/12/22 07:17:35;;;;;;;38.03;9.18;;;;;;;7.34;100.00;100243.63;5099173;28;20075;-65
2023/12/22 07:20:24;;;;;;;39.72;8.88;;;;;;;7.34;100.00;100248.25;5082054;28;20119;-67
2023/12/22 07:23:13;;;;;;;35.83;8.70;;;;;;;7.34;100.00;100245.53;5091530;28;20048;-67
2023/12/22 07:26:01;;;;;;;40.05;8.52;;;;;;;7.36;100.00;100246.06;5087898;28;20483;-65
2023/12/22 07:28:59;;;;;;;34.03;8.57;;;;;;;7.38;100.00;100254.75;5089835;28;20052;-66
2023/12/22 07:31:47;;;;;;;38.10;8.80;;;;;;;7.40;100.00;100247.19;5078781;28;20175;-66
2023/12/22 07:34:35;;;;;;;34.67;8.90;;;;;;;7.42;100.00;100256.69;5086402;28;20044;-64
2023/12/22 07:37:25;;;;;;;40.72;9.20;;;;;;;7.45;100.00;100250.75;5079813;28;20047;-67
2023/12/22 07:40:14;;;;;;;34.15;7.97;;;;;;;7.48;100.00;100254.84;5094923;28;20059;-66
2023/12/22 07:43:04;;;;;;;31.17;7.20;;;;;;;7.52;100.00;100255.94;5067895;28;20127;-66
2023/12/22 07:45:52;;;;;;;35.08;8.57;;;;;;;7.55;100.00;100252.72;5087246;28;20040;-64
2023/12/22 07:48:41;;;;;;;39.42;8.50;;;;;;;7.56;100.00;100250.81;5092496;28;20036;-64
2023/12/22 07:51:29;;;;;;;43.30;9.55;;;;;;;7.57;100.00;100252.44;5080054;28;20067;-67
2023/12/22 07:54:17;;;;;;;36.30;8.32;;;;;;;7.57;100.00;100239.69;5074842;28;20519;-64
2023/12/22 07:57:05;;;;;;;33.58;8.98;;;;;;;7.59;100.00;100245.69;5086189;28;20044;-64
2023/12/22 07:59:53;;;;;;;33.60;7.85;;;;;;;7.60;100.00;100244.63;5070664;28;20056;-63
2023/12/22 08:02:41;;;;;;;39.88;9.07;;;;;;;7.61;100.00;100240.81;5090637;28;20044;-67
2023/12/22 08:05:29;;;;;;;33.45;7.70;;;;;;;7.62;100.00;100250.56;5092616;28;20479;-67
2023/12/22 08:08:18;;;;;;;33.50;7.63;;;;;;;7.66;100.00;100251.69;5082007;28;20044;-67
2023/12/22 08:11:07;;;;;;;30.85;7.38;;;;;;;7.68;100.00;100238.69;5092734;28;20162;-66
2023/12/22 08:13:55;;;;;;;37.55;7.82;;;;;;;7.71;100.00;100233.81;5064105;28;20175;-68
2023/12/22 08:16:44;;;;;;;39.00;8.20;;;;;;;7.75;100.00;100253.91;5073551;28;20052;-64
2023/12/22 08:19:32;;;;;;;35.60;7.63;;;;;;;7.74;100.00;100246.84;5058259;28;20053;-67
2023/12/22 08:22:22;;;;;;;36.00;8.20;;;;;;;7.77;100.00;100246.31;5071885;28;20048;-68
2023/12/22 08:25:15;;;;;;;28.05;7.35;;;;;;;7.79;100.00;100255.84;5057703;28;20516;-67
2023/12/22 08:28:04;;;;;;;29.70;6.85;;;;;;;7.81;100.00;100252.84;5081485;28;20047;-66
2023/12/22 08:30:52;;;;;;;35.63;7.57;;;;;;;7.80;100.00;100240.38;5112702;28;20052;-66
2023/12/22 08:33:41;;;;;;;28.35;6.68;;;;;;;7.80;100.00;100243.91;5071867;28;20106;-66
2023/12/22 08:36:29;;;;;;;34.78;8.38;;;;;;;7.84;100.00;100222.47;5077484;28;20055;-67
2023/12/22 08:39:17;;;;;;;24.83;7.05;;;;;;;7.85;100.00;100232.25;5077596;28;20052;-67
2023/12/22 08:42:05;;;;;;;25.00;6.38;;;;;;;7.87;100.00;100232.81;5078622;28;20067;-65
2023/12/22 08:44:53;;;;;;;25.77;5.85;;;;;;;7.87;100.00;100213.84;5078130;28;20048;-66
2023/12/22 08:47:41;;;;;;;25.00;6.32;;;;;;;7.86;100.00;100215.75;5063303;28;20048;-67
2023/12/22 08:50:29;;;;;;;26.42;5.40;;;;;;;7.86;100.00;100209.47;5089740;28;20078;-67
2023/12/22 08:53:17;;;;;;;21.48;5.40;;;;;;;7.86;100.00;100210.31;5092430;28;20052;-66
2023/12/22 08:56:07;;;;;;;19.42;5.22;;;;;;;7.89;100.00;100208.97;5063168;28;20084;-67
2023/12/22 08:58:56;;;;;;;20.80;5.45;;;;;;;7.93;100.00;100217.38;5075887;28;20131;-68
2023/12/22 09:01:44;;;;;;;19.88;5.13;;;;;;;7.94;100.00;100219.00;5062077;28;20040;-68
2023/12/22 09:04:32;;;;;;;20.85;4.90;;;;;;;7.97;100.00;100218.47;5056913;28;20045;-68
2023/12/22 09:07:22;;;;;;;16.75;4.32;;;;;;;8.00;100.00;100218.75;5036077;28;20052;-68
2023/12/22 09:10:12;;;;;;;19.83;4.40;;;;;;;8.01;100.00;100220.41;5070568;28;20044;-67
2023/12/22 09:13:00;;;;;;;15.55;4.85;;;;;;;8.05;100.00;100234.25;5091683;28;20097;-68
2023/12/22 09:15:48;;;;;;;14.93;4.47;;;;;;;8.05;100.00;100224.19;5090533;28;20043;-68
2023/12/22 09:18:37;;;;;;;16.40;4.30;;;;;;;8.07;100.00;100232.88;5090223;28;20048;-68
2023/12/22 09:21:26;;;;;;;13.40;4.13;;;;;;;8.07;100.00;100218.50;5062636;28;20055;-66
2023/12/22 09:24:14;;;;;;;14.07;3.67;;;;;;;8.11;100.00;100212.28;5092153;28;20036;-66
2023/12/22 09:27:04;;;;;;;12.18;3.78;;;;;;;8.18;100.00;100224.78;5076877;28;20048;-67
2023/12/22 09:29:52;;;;;;;13.32;3.50;;;;;;;8.19;100.00;100215.56;5064923;28;20044;-66
2023/12/22 09:32:40;;;;;;;14.43;3.72;;;;;;;8.19;100.00;100205.53;5097578;28;20044;-67
2023/12/22 09:35:28;;;;;;;10.40;3.45;;;;;;;8.18;100.00;100208.50;5097366;28;20463;-66
2023/12/22 09:38:16;;;;;;;10.02;3.25;;;;;;;8.14;100.00;100197.38;5097865;28;20423;-66
2023/12/22 09:41:04;;;;;;;12.75;3.50;;;;;;;8.13;100.00;100200.34;5093842;28;20480;-68
2023/12/22 09:43:56;;;;;;;11.20;2.95;;;;;;;8.16;100.00;100210.69;5093367;28;20492;-67
2023/12/22 09:46:44;;;;;;;10.30;2.97;;;;;;;8.18;100.00;100205.78;5095613;28;20059;-68
2023/12/22 09:49:36;;;;;;;12.57;2.90;;;;;;;8.19;100.00;100197.38;5074703;28;20051;-68
2023/12/22 09:52:25;;;;;;;12.13;3.25;;;;;;;8.22;100.00;100212.31;5063709;28;20040;-67
2023/12/22 09:55:14;;;;;;;11.63;3.15;;;;;;;8.24;100.00;100199.28;5081743;28;20048;-67
2023/12/22 09:58:03;;;;;;;12.82;3.05;;;;;;;8.30;100.00;100195.53;5078831;28;20040;-66
2023/12/22 10:00:51;;;;;;;11.35;2.90;;;;;;;8.31;100.00;100197.13;5075690;28;20470;-68
2023/12/22 10:03:43;;;;;;;9.65;2.65;;;;;;;8.32;100.00;100215.03;5069278;28;20051;-69
2023/12/22 10:06:31;;;;;;;13.07;3.45;;;;;;;8.34;100.00;100210.16;5100244;28;20044;-68
2023/12/22 10:09:19;;;;;;;14.63;3.53;;;;;;;8.35;100.00;100209.09;5055208;28;20511;-68
2023/12/22 10:12:07;;;;;;;10.93;2.95;;;;;;;8.37;100.00;100204.22;5079899;28;20036;-67
2023/12/22 10:14:59;;;;;;;11.98;2.88;;;;;;;8.39;100.00;100217.50;5081442;28;20055;-67
2023/12/22 10:17:47;;;;;;;6.75;2.67;;;;;;;8.40;100.00;100214.56;5069089;28;20046;-68
2023/12/22 10:20:36;;;;;;;14.00;3.75;;;;;;;8.42;100.00;100225.97;5110043;28;20093;-67
2023/12/22 10:23:24;;;;;;;11.70;3.08;;;;;;;8.45;100.00;100219.19;5088557;28;20143;-68
2023/12/22 10:26:13;;;;;;;11.35;3.10;;;;;;;8.48;100.00;100202.34;5100886;28;20173;-68
2023/12/22 10:29:01;;;;;;;11.95;3.03;;;;;;;8.52;100.00;100206.97;5099322;28;20046;-67
2023/12/22 10:31:50;;;;;;;14.23;3.30;;;;;;;8.55;100.00;100191.25;5080915;28;20051;-67
2023/12/22 10:34:39;;;;;;;14.30;3.25;;;;;;;8.58;100.00;100204.28;5065597;28;20063;-67
2023/12/22 10:37:27;;;;;;;11.05;3.00;;;;;;;8.61;100.00;100198.28;5094432;28;20090;-66
2023/12/22 10:40:15;;;;;;;10.40;3.40;;;;;;;8.61;100.00;100207.28;5094508;28;20450;-66
2023/12/22 10:43:04;;;;;;;9.38;3.05;;;;;;;8.61;100.00;100192.84;5085846;28;20044;-67
2023/12/22 10:45:55;;;;;;;13.07;2.90;;;;;;;8.63;100.00;100207.00;5099941;28;20111;-67
2023/12/22 10:48:43;;;;;;;10.27;2.50;;;;;;;8.63;100.00;100199.66;5086090;28;20476;-66
2023/12/22 10:51:32;;;;;;;9.50;3.05;;;;;;;8.66;100.00;100203.72;5115456;28;20415;-69
2023/12/22 10:54:21;;;;;;;10.38;3.17;;;;;;;8.65;100.00;100192.06;5084882;28;20040;-67
2023/12/22 10:57:11;;;;;;;7.72;2.47;;;;;;;8.67;100.00;100205.38;5094679;28;20047;-67
2023/12/22 10:59:59;;;;;;;8.38;2.67;;;;;;;8.69;100.00;100195.06;5064653;28;20043;-67
2023/12/22 11:02:48;;;;;;;10.00;2.75;;;;;;;8.72;100.00;100191.78;5064576;28;20043;-67
2023/12/22 11:05:38;;;;;;;10.10;3.22;;;;;;;8.72;100.00;100208.91;5079715;28;20050;-68
2023/12/22 11:08:27;;;;;;;10.18;2.70;;;;;;;8.75;100.00;100193.97;5098008;28;20411;-68
2023/12/22 11:11:30;;;;;;;13.13;3.25;;;;;;;8.80;100.00;100204.00;5083543;28;20132;-67
2023/12/22 11:14:20;;;;;;;6.85;2.45;;;;;;;8.83;100.00;100198.88;5069592;28;20478;-67
2023/12/22 11:17:08;;;;;;;11.32;2.78;;;;;;;8.86;100.00;100192.06;5079656;28;20102;-69
2023/12/22 11:19:57;;;;;;;8.65;2.67;;;;;;;8.99;100.00;100191.50;5067112;28;20040;-67
2023/12/22 11:22:45;;;;;;;13.60;3.28;;;;;;;8.96;100.00;100198.31;5093287;28;20063;-68
2023/12/22 11:25:35;;;;;;;12.15;3.10;;;;;;;8.93;100.00;100193.41;4375433;28;10000743;-69
2023/12/22 11:28:24;;;;;;;14.00;3.17;;;;;;;8.91;100.00;100192.88;5087099;28;20051;-69
2023/12/22 11:31:13;;;;;;;12.20;3.00;;;;;;;8.91;100.00;100198.31;5076251;28;20044;-69
2023/12/22 11:34:02;;;;;;;9.60;2.95;;;;;;;8.93;100.00;100179.03;5068191;28;20139;-67
2023/12/22 11:36:59;;;;;;;13.68;3.10;;;;;;;8.95;100.00;100185.00;5077035;28;20063;-68
2023/12/22 11:39:48;;;;;;;9.25;3.22;;;;;;;8.97;100.00;100174.66;5080717;28;20052;-69
2023/12/22 11:42:43;;;;;;;10.45;3.03;;;;;;;9.00;100.00;100176.03;5048359;28;20527;-68
2023/12/22 11:45:35;;;;;;;11.77;3.53;;;;;;;9.02;100.00;100179.28;5072013;28;20557;-68
2023/12/22 11:48:23;;;;;;;13.27;3.65;;;;;;;9.03;100.00;100178.22;5096812;28;20117;-69
2023/12/22 11:51:15;;;;;;;12.65;3.03;;;;;;;9.01;100.00;100164.88;5075413;28;20048;-68
2023/12/22 11:54:03;;;;;;;13.20;3.40;;;;;;;9.02;100.00;100165.69;5055078;28;20521;-67
2023/12/22 11:56:51;;;;;;;11.05;2.95;;;;;;;9.03;100.00;100167.34;5050557;28;20416;-68
2023/12/22 11:59:39;;;;;;;11.18;2.97;;;;;;;9.05;100.00;100163.25;5072691;28;20127;-68
2023/12/22 12:02:29;;;;;;;11.50;3.65;;;;;;;9.08;100.00;100168.13;5061554;28;20129;-67
2023/12/22 12:05:18;;;;;;;10.98;3.17;;;;;;;9.07;100.00;100154.84;5091032;28;20036;-68
2023/12/22 12:08:09;;;;;;;11.98;3.10;;;;;;;9.00;100.00;100170.59;5070789;28;20051;-70
2023/12/22 12:11:00;;;;;;;11.95;2.90;;;;;;;8.97;100.00;100166.50;5103993;28;20095;-70
2023/12/22 12:13:50;;;;;;;10.98;2.70;;;;;;;8.93;100.00;100163.53;5098099;28;20053;-68
2023/12/22 12:16:38;;;;;;;13.07;3.13;;;;;;;8.92;100.00;100159.22;5108230;28;20040;-70
2023/12/22 12:19:26;;;;;;;11.23;3.20;;;;;;;8.92;100.00;100148.34;5100886;28;20071;-69
2023/12/22 12:22:15;;;;;;;12.80;3.00;;;;;;;8.96;100.00;100152.13;5098627;28;20823;-69
2023/12/22 12:25:04;;;;;;;12.30;2.92;;;;;;;8.98;100.00;100140.97;5087660;28;20123;-68
2023/12/22 12:28:02;;;;;;;11.50;3.13;;;;;;;9.07;100.00;100130.38;5058532;28;20088;-68
2023/12/22 12:31:01;;;;;;;10.48;2.88;;;;;;;9.13;100.00;100137.41;5058978;28;20060;-69
2023/12/22 12:33:49;;;;;;;12.18;3.00;;;;;;;9.13;100.00;100126.53;5054733;28;20048;-68
2023/12/22 12:36:39;;;;;;;34.05;14.02;;;;;;;9.13;100.00;100127.34;5069932;28;20133;-67
2023/12/22 12:39:32;;;;;;;10.00;3.53;;;;;;;9.14;100.00;100141.78;5075723;28;20071;-69
2023/12/22 12:42:22;;;;;;;14.45;3.60;;;;;;;9.13;100.00;100142.84;5074291;28;20059;-68
2023/12/22 12:45:10;;;;;;;11.73;3.25;;;;;;;9.10;100.00;100132.53;5072920;28;20488;-68
2023/12/22 12:48:02;;;;;;;15.45;4.18;;;;;;;9.08;100.00;100140.97;5087937;28;20044;-69
2023/12/22 12:50:53;;;;;;;15.52;3.85;;;;;;;9.07;100.00;100147.50;5057717;28;20044;-68
2023/12/22 12:53:41;;;;;;;14.00;3.25;;;;;;;9.10;100.00;100140.69;5067403;28;20101;-67
2023/12/22 12:56:29;;;;;;;12.70;3.33;;;;;;;9.11;100.00;100145.03;5087368;28;20574;-66